sensor_id;sensor_type;location;lat;lon;timestamp;P1;durP1;ratioP1;P2;durP2;ratioP2
12784;SDS011;6456;42.680;23.260;2022-10-19T00:01:06;8.50;;;6.33;;
12784;SDS011;6456;42.680;23.260;2022-10-19T00:03:36;12.93;;;7.47;;
12784;SDS011;6456;42.680;23.260;2022-10-19T00:06:10;10.27;;;6.67;;
12784;SDS011;6456;42.680;23.260;2022-10-19T00:08:38;11.10;;;6.30;;
12784;SDS011;6456;42.680;23.260;2022-10-19T00:11:05;6.53;;;5.50;;
12784;SDS011;6456;42.680;23.260;2022-10-19T00:13:33;6.90;;;4.73;;
12784;SDS011;6456;42.680;23.260;2022-10-19T00:16:01;4.80;;;4.23;;
12784;SDS011;6456;42.680;23.260;2022-10-19T00:18:34;5.70;;;4.97;;
12784;SDS011;6456;42.680;23.260;2022-10-19T00:21:01;7.97;;;5.00;;
12784;SDS011;6456;42.680;23.260;2022-10-19T00:23:30;6.60;;;5.00;;
12784;SDS011;6456;42.680;23.260;2022-10-19T00:25:57;6.87;;;4.47;;
12784;SDS011;6456;42.680;23.260;2022-10-19T00:28:24;6.03;;;4.90;;
12784;SDS011;6456;42.680;23.260;2022-10-19T00:30:51;7.53;;;4.93;;
12784;SDS011;6456;42.680;23.260;2022-10-19T00:33:19;9.07;;;5.33;;
12784;SDS011;6456;42.680;23.260;2022-10-19T00:35:47;6.63;;;5.00;;
12784;SDS011;6456;42.680;23.260;2022-10-19T00:38:15;6.03;;;4.80;;
12784;SDS011;6456;42.680;23.260;2022-10-19T00:40:42;5.60;;;4.73;;
12784;SDS011;6456;42.680;23.260;2022-10-19T00:43:11;6.80;;;5.37;;
12784;SDS011;6456;42.680;23.260;2022-10-19T00:45:39;7.77;;;5.70;;
12784;SDS011;6456;42.680;23.260;2022-10-19T00:48:07;6.33;;;5.17;;
12784;SDS011;6456;42.680;23.260;2022-10-19T00:50:38;6.87;;;5.70;;
12784;SDS011;6456;42.680;23.260;2022-10-19T00:53:06;7.30;;;4.87;;
12784;SDS011;6456;42.680;23.260;2022-10-19T00:55:33;5.97;;;4.93;;
12784;SDS011;6456;42.680;23.260;2022-10-19T00:58:00;7.23;;;5.57;;
12784;SDS011;6456;42.680;23.260;2022-10-19T01:00:29;8.40;;;5.53;;
12784;SDS011;6456;42.680;23.260;2022-10-19T01:02:58;6.53;;;5.53;;
12784;SDS011;6456;42.680;23.260;2022-10-19T01:05:25;8.87;;;5.20;;
12784;SDS011;6456;42.680;23.260;2022-10-19T01:07:55;6.80;;;5.10;;
12784;SDS011;6456;42.680;23.260;2022-10-19T01:10:23;7.87;;;5.00;;
12784;SDS011;6456;42.680;23.260;2022-10-19T01:13:04;8.30;;;4.87;;
12784;SDS011;6456;42.680;23.260;2022-10-19T01:15:41;6.33;;;4.13;;
12784;SDS011;6456;42.680;23.260;2022-10-19T01:18:16;5.00;;;4.10;;
12784;SDS011;6456;42.680;23.260;2022-10-19T01:24:07;5.87;;;4.90;;
12784;SDS011;6456;42.680;23.260;2022-10-19T01:27:05;5.63;;;4.53;;
12784;SDS011;6456;42.680;23.260;2022-10-19T01:30:04;5.70;;;4.40;;
12784;SDS011;6456;42.680;23.260;2022-10-19T01:32:37;4.83;;;4.40;;
12784;SDS011;6456;42.680;23.260;2022-10-19T01:35:12;4.77;;;4.27;;
12784;SDS011;6456;42.680;23.260;2022-10-19T01:37:51;5.20;;;4.27;;
12784;SDS011;6456;42.680;23.260;2022-10-19T01:40:27;6.37;;;4.83;;
12784;SDS011;6456;42.680;23.260;2022-10-19T01:43:01;5.27;;;4.30;;
12784;SDS011;6456;42.680;23.260;2022-10-19T01:45:37;5.67;;;4.67;;
12784;SDS011;6456;42.680;23.260;2022-10-19T01:48:08;6.70;;;4.50;;
12784;SDS011;6456;42.680;23.260;2022-10-19T01:50:40;5.23;;;4.73;;
12784;SDS011;6456;42.680;23.260;2022-10-19T01:53:11;4.67;;;4.20;;
12784;SDS011;6456;42.680;23.260;2022-10-19T01:55:43;6.83;;;4.80;;
12784;SDS011;6456;42.680;23.260;2022-10-19T01:58:13;6.57;;;4.57;;
12784;SDS011;6456;42.680;23.260;2022-10-19T02:00:46;6.93;;;4.20;;
12784;SDS011;6456;42.680;23.260;2022-10-19T02:03:16;5.33;;;4.10;;
12784;SDS011;6456;42.680;23.260;2022-10-19T02:05:44;5.27;;;3.83;;
12784;SDS011;6456;42.680;23.260;2022-10-19T02:08:16;5.27;;;3.97;;
12784;SDS011;6456;42.680;23.260;2022-10-19T02:10:47;5.87;;;4.40;;
12784;SDS011;6456;42.680;23.260;2022-10-19T02:13:14;8.30;;;4.47;;
12784;SDS011;6456;42.680;23.260;2022-10-19T02:15:46;9.00;;;5.00;;
12784;SDS011;6456;42.680;23.260;2022-10-19T02:18:17;7.43;;;4.60;;
12784;SDS011;6456;42.680;23.260;2022-10-19T02:20:49;5.03;;;4.00;;
12784;SDS011;6456;42.680;23.260;2022-10-19T02:23:17;5.90;;;4.63;;
12784;SDS011;6456;42.680;23.260;2022-10-19T02:25:47;6.33;;;4.57;;
12784;SDS011;6456;42.680;23.260;2022-10-19T02:28:14;6.47;;;3.87;;
12784;SDS011;6456;42.680;23.260;2022-10-19T02:30:41;6.47;;;4.57;;
12784;SDS011;6456;42.680;23.260;2022-10-19T02:33:10;5.53;;;4.57;;
12784;SDS011;6456;42.680;23.260;2022-10-19T02:35:37;6.63;;;4.40;;
12784;SDS011;6456;42.680;23.260;2022-10-19T02:38:05;4.60;;;3.90;;
12784;SDS011;6456;42.680;23.260;2022-10-19T02:40:37;5.50;;;4.33;;
12784;SDS011;6456;42.680;23.260;2022-10-19T02:43:09;5.67;;;4.10;;
12784;SDS011;6456;42.680;23.260;2022-10-19T02:45:39;5.67;;;4.20;;
12784;SDS011;6456;42.680;23.260;2022-10-19T02:48:16;5.27;;;4.27;;
12784;SDS011;6456;42.680;23.260;2022-10-19T02:50:45;5.37;;;4.30;;
12784;SDS011;6456;42.680;23.260;2022-10-19T02:53:12;4.50;;;3.87;;
12784;SDS011;6456;42.680;23.260;2022-10-19T02:55:39;5.60;;;3.97;;
12784;SDS011;6456;42.680;23.260;2022-10-19T02:58:07;6.43;;;4.80;;
12784;SDS011;6456;42.680;23.260;2022-10-19T03:00:35;6.67;;;4.50;;
12784;SDS011;6456;42.680;23.260;2022-10-19T03:03:02;10.27;;;4.33;;
12784;SDS011;6456;42.680;23.260;2022-10-19T03:05:30;6.50;;;3.87;;
12784;SDS011;6456;42.680;23.260;2022-10-19T03:07:57;7.63;;;4.40;;
12784;SDS011;6456;42.680;23.260;2022-10-19T03:10:24;5.40;;;3.73;;
12784;SDS011;6456;42.680;23.260;2022-10-19T03:12:50;5.70;;;4.20;;
12784;SDS011;6456;42.680;23.260;2022-10-19T03:15:17;4.93;;;4.13;;
12784;SDS011;6456;42.680;23.260;2022-10-19T03:17:45;7.07;;;4.03;;
12784;SDS011;6456;42.680;23.260;2022-10-19T03:20:11;5.83;;;4.10;;
12784;SDS011;6456;42.680;23.260;2022-10-19T03:22:40;5.97;;;4.60;;
12784;SDS011;6456;42.680;23.260;2022-10-19T03:25:07;7.57;;;4.57;;
12784;SDS011;6456;42.680;23.260;2022-10-19T03:27:34;6.97;;;4.67;;
12784;SDS011;6456;42.680;23.260;2022-10-19T03:30:01;5.90;;;4.70;;
12784;SDS011;6456;42.680;23.260;2022-10-19T03:32:28;5.60;;;4.37;;
12784;SDS011;6456;42.680;23.260;2022-10-19T03:34:55;7.53;;;5.10;;
12784;SDS011;6456;42.680;23.260;2022-10-19T03:37:22;6.13;;;4.63;;
12784;SDS011;6456;42.680;23.260;2022-10-19T03:39:50;7.07;;;5.40;;
12784;SDS011;6456;42.680;23.260;2022-10-19T03:42:17;13.00;;;5.13;;
12784;SDS011;6456;42.680;23.260;2022-10-19T03:44:44;8.87;;;4.90;;
12784;SDS011;6456;42.680;23.260;2022-10-19T03:47:10;8.40;;;5.00;;
12784;SDS011;6456;42.680;23.260;2022-10-19T03:49:37;8.30;;;5.17;;
12784;SDS011;6456;42.680;23.260;2022-10-19T03:52:04;9.87;;;5.37;;
12784;SDS011;6456;42.680;23.260;2022-10-19T03:54:34;8.87;;;5.43;;
12784;SDS011;6456;42.680;23.260;2022-10-19T03:57:02;7.97;;;5.20;;
12784;SDS011;6456;42.680;23.260;2022-10-19T03:59:29;8.00;;;5.47;;
12784;SDS011;6456;42.680;23.260;2022-10-19T04:01:56;8.50;;;5.20;;
12784;SDS011;6456;42.680;23.260;2022-10-19T04:04:23;9.50;;;6.70;;
12784;SDS011;6456;42.680;23.260;2022-10-19T04:06:50;9.27;;;6.73;;
12784;SDS011;6456;42.680;23.260;2022-10-19T04:09:19;12.77;;;6.57;;
12784;SDS011;6456;42.680;23.260;2022-10-19T04:11:47;13.37;;;6.40;;
12784;SDS011;6456;42.680;23.260;2022-10-19T04:14:17;11.67;;;7.17;;
12784;SDS011;6456;42.680;23.260;2022-10-19T04:16:45;13.37;;;6.83;;
12784;SDS011;6456;42.680;23.260;2022-10-19T04:19:12;10.53;;;6.53;;
12784;SDS011;6456;42.680;23.260;2022-10-19T04:21:40;8.20;;;6.17;;
12784;SDS011;6456;42.680;23.260;2022-10-19T04:24:09;13.53;;;6.50;;
12784;SDS011;6456;42.680;23.260;2022-10-19T04:26:38;14.27;;;7.80;;
12784;SDS011;6456;42.680;23.260;2022-10-19T04:29:06;14.60;;;7.70;;
12784;SDS011;6456;42.680;23.260;2022-10-19T04:31:35;14.40;;;7.40;;
12784;SDS011;6456;42.680;23.260;2022-10-19T04:34:02;11.60;;;7.10;;
12784;SDS011;6456;42.680;23.260;2022-10-19T04:36:29;15.03;;;8.10;;
12784;SDS011;6456;42.680;23.260;2022-10-19T04:38:56;15.20;;;8.27;;
12784;SDS011;6456;42.680;23.260;2022-10-19T04:41:23;14.93;;;7.30;;
12784;SDS011;6456;42.680;23.260;2022-10-19T04:43:53;18.57;;;7.80;;
12784;SDS011;6456;42.680;23.260;2022-10-19T04:46:21;23.83;;;9.70;;
12784;SDS011;6456;42.680;23.260;2022-10-19T04:48:50;23.53;;;7.40;;
12784;SDS011;6456;42.680;23.260;2022-10-19T04:51:17;13.10;;;7.60;;
12784;SDS011;6456;42.680;23.260;2022-10-19T04:53:45;13.73;;;8.00;;
12784;SDS011;6456;42.680;23.260;2022-10-19T04:56:13;18.30;;;9.83;;
12784;SDS011;6456;42.680;23.260;2022-10-19T04:58:41;20.60;;;10.30;;
12784;SDS011;6456;42.680;23.260;2022-10-19T05:01:08;16.97;;;10.00;;
12784;SDS011;6456;42.680;23.260;2022-10-19T05:03:36;15.50;;;9.53;;
12784;SDS011;6456;42.680;23.260;2022-10-19T05:06:05;28.10;;;14.40;;
12784;SDS011;6456;42.680;23.260;2022-10-19T05:08:33;29.23;;;16.80;;
12784;SDS011;6456;42.680;23.260;2022-10-19T05:11:01;32.93;;;18.43;;
12784;SDS011;6456;42.680;23.260;2022-10-19T05:13:29;23.70;;;14.63;;
12784;SDS011;6456;42.680;23.260;2022-10-19T05:15:56;23.53;;;11.27;;
12784;SDS011;6456;42.680;23.260;2022-10-19T05:18:24;31.73;;;11.40;;
12784;SDS011;6456;42.680;23.260;2022-10-19T05:20:54;21.60;;;10.53;;
12784;SDS011;6456;42.680;23.260;2022-10-19T05:23:27;17.07;;;9.60;;
12784;SDS011;6456;42.680;23.260;2022-10-19T05:25:58;15.50;;;8.70;;
12784;SDS011;6456;42.680;23.260;2022-10-19T05:28:26;18.80;;;9.17;;
12784;SDS011;6456;42.680;23.260;2022-10-19T05:30:52;12.93;;;8.70;;
12784;SDS011;6456;42.680;23.260;2022-10-19T05:33:19;21.30;;;10.20;;
12784;SDS011;6456;42.680;23.260;2022-10-19T05:35:46;20.10;;;9.23;;
12784;SDS011;6456;42.680;23.260;2022-10-19T05:38:13;17.07;;;9.20;;
12784;SDS011;6456;42.680;23.260;2022-10-19T05:40:44;17.17;;;9.70;;
12784;SDS011;6456;42.680;23.260;2022-10-19T05:43:12;21.57;;;11.43;;
12784;SDS011;6456;42.680;23.260;2022-10-19T05:45:39;24.57;;;11.00;;
12784;SDS011;6456;42.680;23.260;2022-10-19T05:48:06;14.97;;;9.70;;
12784;SDS011;6456;42.680;23.260;2022-10-19T05:50:33;20.27;;;9.23;;
12784;SDS011;6456;42.680;23.260;2022-10-19T05:52:59;14.03;;;8.70;;
12784;SDS011;6456;42.680;23.260;2022-10-19T05:55:26;18.67;;;7.97;;
12784;SDS011;6456;42.680;23.260;2022-10-19T05:57:55;12.20;;;9.17;;
12784;SDS011;6456;42.680;23.260;2022-10-19T06:00:21;15.97;;;9.00;;
12784;SDS011;6456;42.680;23.260;2022-10-19T06:02:50;18.13;;;10.17;;
12784;SDS011;6456;42.680;23.260;2022-10-19T06:05:17;26.90;;;11.83;;
12784;SDS011;6456;42.680;23.260;2022-10-19T06:07:45;24.67;;;12.73;;
12784;SDS011;6456;42.680;23.260;2022-10-19T06:10:12;20.70;;;13.10;;
12784;SDS011;6456;42.680;23.260;2022-10-19T06:12:39;20.63;;;12.20;;
12784;SDS011;6456;42.680;23.260;2022-10-19T06:15:09;22.70;;;14.03;;
12784;SDS011;6456;42.680;23.260;2022-10-19T06:17:36;23.07;;;14.77;;
12784;SDS011;6456;42.680;23.260;2022-10-19T06:20:03;29.47;;;15.57;;
12784;SDS011;6456;42.680;23.260;2022-10-19T06:22:31;21.57;;;15.70;;
12784;SDS011;6456;42.680;23.260;2022-10-19T06:24:58;32.90;;;17.33;;
12784;SDS011;6456;42.680;23.260;2022-10-19T06:27:25;26.57;;;16.73;;
12784;SDS011;6456;42.680;23.260;2022-10-19T06:29:51;25.93;;;17.40;;
12784;SDS011;6456;42.680;23.260;2022-10-19T06:32:20;25.93;;;16.93;;
12784;SDS011;6456;42.680;23.260;2022-10-19T06:34:47;26.13;;;16.77;;
12784;SDS011;6456;42.680;23.260;2022-10-19T06:37:13;28.47;;;16.83;;
12784;SDS011;6456;42.680;23.260;2022-10-19T06:39:40;31.07;;;17.97;;
12784;SDS011;6456;42.680;23.260;2022-10-19T06:42:07;35.63;;;18.57;;
12784;SDS011;6456;42.680;23.260;2022-10-19T06:44:34;33.70;;;19.00;;
12784;SDS011;6456;42.680;23.260;2022-10-19T06:47:01;29.77;;;17.53;;
12784;SDS011;6456;42.680;23.260;2022-10-19T06:49:29;32.47;;;18.10;;
12784;SDS011;6456;42.680;23.260;2022-10-19T06:55:21;22.30;;;18.13;;
12784;SDS011;6456;42.680;23.260;2022-10-19T06:57:48;25.77;;;18.07;;
12784;SDS011;6456;42.680;23.260;2022-10-19T07:00:15;28.67;;;17.83;;
12784;SDS011;6456;42.680;23.260;2022-10-19T07:02:42;26.50;;;19.20;;
12784;SDS011;6456;42.680;23.260;2022-10-19T07:05:11;25.37;;;17.47;;
12784;SDS011;6456;42.680;23.260;2022-10-19T07:07:37;27.50;;;17.47;;
12784;SDS011;6456;42.680;23.260;2022-10-19T07:10:04;27.57;;;17.30;;
12784;SDS011;6456;42.680;23.260;2022-10-19T07:12:32;25.20;;;16.60;;
12784;SDS011;6456;42.680;23.260;2022-10-19T07:14:58;24.50;;;16.33;;
12784;SDS011;6456;42.680;23.260;2022-10-19T07:17:25;29.87;;;17.63;;
12784;SDS011;6456;42.680;23.260;2022-10-19T07:19:52;31.27;;;17.77;;
12784;SDS011;6456;42.680;23.260;2022-10-19T07:22:21;23.80;;;16.63;;
12784;SDS011;6456;42.680;23.260;2022-10-19T07:24:47;28.13;;;16.67;;
12784;SDS011;6456;42.680;23.260;2022-10-19T07:27:14;24.97;;;16.87;;
12784;SDS011;6456;42.680;23.260;2022-10-19T07:29:41;29.23;;;16.63;;
12784;SDS011;6456;42.680;23.260;2022-10-19T07:32:08;29.37;;;17.77;;
12784;SDS011;6456;42.680;23.260;2022-10-19T07:34:35;24.10;;;16.30;;
12784;SDS011;6456;42.680;23.260;2022-10-19T07:37:02;25.57;;;17.23;;
12784;SDS011;6456;42.680;23.260;2022-10-19T07:39:30;21.10;;;15.77;;
12784;SDS011;6456;42.680;23.260;2022-10-19T07:41:57;26.77;;;16.47;;
12784;SDS011;6456;42.680;23.260;2022-10-19T07:44:24;27.03;;;16.73;;
12784;SDS011;6456;42.680;23.260;2022-10-19T07:46:52;25.93;;;16.30;;
12784;SDS011;6456;42.680;23.260;2022-10-19T07:49:19;29.03;;;15.97;;
12784;SDS011;6456;42.680;23.260;2022-10-19T07:51:46;24.27;;;15.60;;
12784;SDS011;6456;42.680;23.260;2022-10-19T07:54:17;24.70;;;15.17;;
12784;SDS011;6456;42.680;23.260;2022-10-19T07:56:46;23.73;;;14.00;;
12784;SDS011;6456;42.680;23.260;2022-10-19T07:59:13;21.67;;;13.77;;
12784;SDS011;6456;42.680;23.260;2022-10-19T08:01:41;23.07;;;13.50;;
12784;SDS011;6456;42.680;23.260;2022-10-19T08:04:08;24.30;;;13.00;;
12784;SDS011;6456;42.680;23.260;2022-10-19T08:06:36;15.33;;;11.93;;
12784;SDS011;6456;42.680;23.260;2022-10-19T08:09:03;17.23;;;10.50;;
12784;SDS011;6456;42.680;23.260;2022-10-19T08:11:31;13.63;;;7.37;;
12784;SDS011;6456;42.680;23.260;2022-10-19T08:14:01;11.90;;;7.40;;
12784;SDS011;6456;42.680;23.260;2022-10-19T08:16:28;13.13;;;8.13;;
12784;SDS011;6456;42.680;23.260;2022-10-19T08:18:57;13.83;;;7.90;;
12784;SDS011;6456;42.680;23.260;2022-10-19T08:21:26;15.53;;;8.83;;
12784;SDS011;6456;42.680;23.260;2022-10-19T08:23:54;13.13;;;8.00;;
12784;SDS011;6456;42.680;23.260;2022-10-19T08:26:22;11.50;;;7.20;;
12784;SDS011;6456;42.680;23.260;2022-10-19T08:28:49;15.20;;;7.93;;
12784;SDS011;6456;42.680;23.260;2022-10-19T08:31:18;11.90;;;7.73;;
12784;SDS011;6456;42.680;23.260;2022-10-19T08:33:47;10.10;;;7.13;;
12784;SDS011;6456;42.680;23.260;2022-10-19T08:36:15;8.50;;;6.33;;
12784;SDS011;6456;42.680;23.260;2022-10-19T08:38:43;9.47;;;6.10;;
12784;SDS011;6456;42.680;23.260;2022-10-19T08:46:59;8.37;;;5.13;;
12784;SDS011;6456;42.680;23.260;2022-10-19T08:49:38;7.83;;;4.63;;
12784;SDS011;6456;42.680;23.260;2022-10-19T08:52:06;11.93;;;4.70;;
12784;SDS011;6456;42.680;23.260;2022-10-19T08:54:40;5.73;;;3.70;;
12784;SDS011;6456;42.680;23.260;2022-10-19T08:57:13;8.80;;;4.00;;
12784;SDS011;6456;42.680;23.260;2022-10-19T08:59:48;4.70;;;3.57;;
12784;SDS011;6456;42.680;23.260;2022-10-19T09:02:27;8.33;;;3.90;;
12784;SDS011;6456;42.680;23.260;2022-10-19T09:05:10;6.77;;;3.67;;
12784;SDS011;6456;42.680;23.260;2022-10-19T09:07:43;8.70;;;3.93;;
12784;SDS011;6456;42.680;23.260;2022-10-19T09:10:15;7.60;;;4.57;;
12784;SDS011;6456;42.680;23.260;2022-10-19T09:12:47;4.93;;;3.97;;
12784;SDS011;6456;42.680;23.260;2022-10-19T09:15:21;5.97;;;3.63;;
12784;SDS011;6456;42.680;23.260;2022-10-19T09:17:56;6.20;;;4.13;;
12784;SDS011;6456;42.680;23.260;2022-10-19T09:20:32;5.27;;;3.03;;
12784;SDS011;6456;42.680;23.260;2022-10-19T09:23:04;5.30;;;3.07;;
12784;SDS011;6456;42.680;23.260;2022-10-19T09:25:36;6.50;;;4.17;;
12784;SDS011;6456;42.680;23.260;2022-10-19T09:28:13;7.43;;;2.93;;
12784;SDS011;6456;42.680;23.260;2022-10-19T09:30:46;4.37;;;3.73;;
12784;SDS011;6456;42.680;23.260;2022-10-19T09:33:18;4.60;;;2.77;;
12784;SDS011;6456;42.680;23.260;2022-10-19T09:35:52;5.00;;;3.10;;
12784;SDS011;6456;42.680;23.260;2022-10-19T09:38:22;5.67;;;3.10;;
12784;SDS011;6456;42.680;23.260;2022-10-19T09:40:51;5.23;;;3.10;;
12784;SDS011;6456;42.680;23.260;2022-10-19T09:43:18;3.90;;;3.13;;
12784;SDS011;6456;42.680;23.260;2022-10-19T09:45:47;3.17;;;2.87;;
12784;SDS011;6456;42.680;23.260;2022-10-19T09:48:22;4.80;;;3.33;;
12784;SDS011;6456;42.680;23.260;2022-10-19T09:50:54;3.10;;;2.87;;
12784;SDS011;6456;42.680;23.260;2022-10-19T09:53:23;3.60;;;2.70;;
12784;SDS011;6456;42.680;23.260;2022-10-19T09:55:54;5.60;;;3.17;;
12784;SDS011;6456;42.680;23.260;2022-10-19T09:58:25;4.00;;;2.80;;
12784;SDS011;6456;42.680;23.260;2022-10-19T10:00:53;3.77;;;3.17;;
12784;SDS011;6456;42.680;23.260;2022-10-19T10:03:25;4.27;;;2.93;;
12784;SDS011;6456;42.680;23.260;2022-10-19T10:05:54;4.77;;;3.07;;
12784;SDS011;6456;42.680;23.260;2022-10-19T10:08:23;4.47;;;3.10;;
12784;SDS011;6456;42.680;23.260;2022-10-19T10:10:54;3.40;;;3.10;;
12784;SDS011;6456;42.680;23.260;2022-10-19T10:13:26;5.70;;;3.00;;
12784;SDS011;6456;42.680;23.260;2022-10-19T10:15:54;3.40;;;3.10;;
12784;SDS011;6456;42.680;23.260;2022-10-19T10:18:25;6.37;;;2.90;;
12784;SDS011;6456;42.680;23.260;2022-10-19T10:20:58;4.27;;;2.83;;
12784;SDS011;6456;42.680;23.260;2022-10-19T10:23:29;7.00;;;3.40;;
12784;SDS011;6456;42.680;23.260;2022-10-19T10:25:59;4.90;;;3.07;;
12784;SDS011;6456;42.680;23.260;2022-10-19T10:28:26;4.10;;;2.97;;
12784;SDS011;6456;42.680;23.260;2022-10-19T10:30:58;4.33;;;2.67;;
12784;SDS011;6456;42.680;23.260;2022-10-19T10:33:28;6.80;;;3.10;;
12784;SDS011;6456;42.680;23.260;2022-10-19T10:36:00;3.07;;;2.77;;
12784;SDS011;6456;42.680;23.260;2022-10-19T10:38:29;6.77;;;3.17;;
12784;SDS011;6456;42.680;23.260;2022-10-19T10:40:59;4.57;;;3.07;;
12784;SDS011;6456;42.680;23.260;2022-10-19T10:43:30;5.63;;;2.70;;
12784;SDS011;6456;42.680;23.260;2022-10-19T10:45:59;4.67;;;3.00;;
12784;SDS011;6456;42.680;23.260;2022-10-19T10:48:31;2.80;;;2.50;;
12784;SDS011;6456;42.680;23.260;2022-10-19T10:51:02;3.83;;;2.70;;
12784;SDS011;6456;42.680;23.260;2022-10-19T10:53:40;3.17;;;2.87;;
12784;SDS011;6456;42.680;23.260;2022-10-19T10:56:18;3.10;;;2.63;;
12784;SDS011;6456;42.680;23.260;2022-10-19T10:58:50;2.90;;;2.40;;
12784;SDS011;6456;42.680;23.260;2022-10-19T11:01:23;2.53;;;2.33;;
12784;SDS011;6456;42.680;23.260;2022-10-19T11:03:56;5.50;;;2.53;;
12784;SDS011;6456;42.680;23.260;2022-10-19T11:06:27;2.53;;;2.33;;
12784;SDS011;6456;42.680;23.260;2022-10-19T11:08:58;3.97;;;2.50;;
12784;SDS011;6456;42.680;23.260;2022-10-19T11:11:33;3.10;;;2.33;;
12784;SDS011;6456;42.680;23.260;2022-10-19T11:14:09;2.43;;;2.23;;
12784;SDS011;6456;42.680;23.260;2022-10-19T11:16:51;2.93;;;2.30;;
12784;SDS011;6456;42.680;23.260;2022-10-19T11:19:23;3.97;;;2.63;;
12784;SDS011;6456;42.680;23.260;2022-10-19T11:21:55;6.03;;;2.70;;
12784;SDS011;6456;42.680;23.260;2022-10-19T11:24:31;5.80;;;2.80;;
12784;SDS011;6456;42.680;23.260;2022-10-19T11:27:10;3.53;;;2.07;;
12784;SDS011;6456;42.680;23.260;2022-10-19T11:29:57;4.70;;;2.27;;
12784;SDS011;6456;42.680;23.260;2022-10-19T11:32:34;3.43;;;2.90;;
12784;SDS011;6456;42.680;23.260;2022-10-19T11:35:16;4.43;;;2.40;;
12784;SDS011;6456;42.680;23.260;2022-10-19T11:37:57;4.90;;;2.60;;
12784;SDS011;6456;42.680;23.260;2022-10-19T11:40:34;2.40;;;2.20;;
12784;SDS011;6456;42.680;23.260;2022-10-19T11:43:08;6.10;;;2.47;;
12784;SDS011;6456;42.680;23.260;2022-10-19T11:45:44;4.30;;;2.63;;
12784;SDS011;6456;42.680;23.260;2022-10-19T11:48:39;4.27;;;2.63;;
12784;SDS011;6456;42.680;23.260;2022-10-19T11:51:23;4.13;;;2.40;;
12784;SDS011;6456;42.680;23.260;2022-10-19T11:54:00;6.80;;;3.20;;
12784;SDS011;6456;42.680;23.260;2022-10-19T11:56:38;8.63;;;3.80;;
12784;SDS011;6456;42.680;23.260;2022-10-19T11:59:13;3.47;;;2.87;;
12784;SDS011;6456;42.680;23.260;2022-10-19T12:01:50;3.63;;;2.40;;
12784;SDS011;6456;42.680;23.260;2022-10-19T12:07:23;3.83;;;2.87;;
12784;SDS011;6456;42.680;23.260;2022-10-19T12:10:04;3.17;;;2.87;;
12784;SDS011;6456;42.680;23.260;2022-10-19T12:12:55;4.47;;;2.67;;
12784;SDS011;6456;42.680;23.260;2022-10-19T12:15:27;6.73;;;3.10;;
12784;SDS011;6456;42.680;23.260;2022-10-19T12:17:59;3.87;;;2.90;;
12784;SDS011;6456;42.680;23.260;2022-10-19T12:20:31;5.40;;;3.27;;
12784;SDS011;6456;42.680;23.260;2022-10-19T12:23:13;7.73;;;3.20;;
12784;SDS011;6456;42.680;23.260;2022-10-19T12:25:46;5.37;;;3.20;;
12784;SDS011;6456;42.680;23.260;2022-10-19T12:28:15;4.33;;;2.87;;
12784;SDS011;6456;42.680;23.260;2022-10-19T12:30:46;8.97;;;3.50;;
12784;SDS011;6456;42.680;23.260;2022-10-19T12:33:16;8.20;;;3.30;;
12784;SDS011;6456;42.680;23.260;2022-10-19T12:35:54;4.63;;;3.10;;
12784;SDS011;6456;42.680;23.260;2022-10-19T12:38:34;6.40;;;3.43;;
12784;SDS011;6456;42.680;23.260;2022-10-19T12:41:09;6.30;;;3.23;;
12784;SDS011;6456;42.680;23.260;2022-10-19T12:43:51;5.27;;;2.93;;
12784;SDS011;6456;42.680;23.260;2022-10-19T12:46:30;6.53;;;3.00;;
12784;SDS011;6456;42.680;23.260;2022-10-19T12:52:02;4.40;;;2.90;;
12784;SDS011;6456;42.680;23.260;2022-10-19T12:54:34;3.63;;;2.60;;
12784;SDS011;6456;42.680;23.260;2022-10-19T12:57:03;6.20;;;3.00;;
12784;SDS011;6456;42.680;23.260;2022-10-19T12:59:47;3.70;;;3.07;;
12784;SDS011;6456;42.680;23.260;2022-10-19T13:02:26;4.87;;;3.00;;
12784;SDS011;6456;42.680;23.260;2022-10-19T13:04:55;7.53;;;3.00;;
12784;SDS011;6456;42.680;23.260;2022-10-19T13:07:23;5.23;;;3.10;;
12784;SDS011;6456;42.680;23.260;2022-10-19T13:09:58;5.17;;;3.33;;
12784;SDS011;6456;42.680;23.260;2022-10-19T13:12:43;4.67;;;3.10;;
12784;SDS011;6456;42.680;23.260;2022-10-19T13:21:50;6.67;;;3.50;;
12784;SDS011;6456;42.680;23.260;2022-10-19T13:24:39;4.90;;;3.30;;
12784;SDS011;6456;42.680;23.260;2022-10-19T13:30:04;4.37;;;3.40;;
12784;SDS011;6456;42.680;23.260;2022-10-19T13:32:52;8.43;;;3.23;;
12784;SDS011;6456;42.680;23.260;2022-10-19T13:35:20;5.60;;;3.37;;
12784;SDS011;6456;42.680;23.260;2022-10-19T13:38:18;5.17;;;3.33;;
12784;SDS011;6456;42.680;23.260;2022-10-19T13:41:03;3.80;;;3.40;;
12784;SDS011;6456;42.680;23.260;2022-10-19T13:43:36;7.63;;;3.47;;
12784;SDS011;6456;42.680;23.260;2022-10-19T13:46:10;5.03;;;2.73;;
12784;SDS011;6456;42.680;23.260;2022-10-19T13:51:45;4.83;;;3.10;;
12784;SDS011;6456;42.680;23.260;2022-10-19T13:54:27;3.70;;;3.40;;
12784;SDS011;6456;42.680;23.260;2022-10-19T13:57:15;3.30;;;3.00;;
12784;SDS011;6456;42.680;23.260;2022-10-19T14:02:49;7.53;;;3.87;;
12784;SDS011;6456;42.680;23.260;2022-10-19T14:08:25;3.90;;;3.30;;
12784;SDS011;6456;42.680;23.260;2022-10-19T14:11:02;9.40;;;3.70;;
12784;SDS011;6456;42.680;23.260;2022-10-19T14:13:37;4.73;;;3.27;;
12784;SDS011;6456;42.680;23.260;2022-10-19T14:16:05;6.37;;;3.43;;
12784;SDS011;6456;42.680;23.260;2022-10-19T14:18:34;5.00;;;3.60;;
12784;SDS011;6456;42.680;23.260;2022-10-19T14:21:02;5.13;;;3.77;;
12784;SDS011;6456;42.680;23.260;2022-10-19T14:23:31;9.13;;;3.77;;
12784;SDS011;6456;42.680;23.260;2022-10-19T14:25:59;4.00;;;3.60;;
12784;SDS011;6456;42.680;23.260;2022-10-19T14:28:28;5.50;;;3.87;;
12784;SDS011;6456;42.680;23.260;2022-10-19T14:30:57;6.87;;;4.17;;
12784;SDS011;6456;42.680;23.260;2022-10-19T14:33:27;7.07;;;3.83;;
12784;SDS011;6456;42.680;23.260;2022-10-19T14:35:58;4.43;;;3.90;;
12784;SDS011;6456;42.680;23.260;2022-10-19T14:38:27;8.33;;;3.73;;
12784;SDS011;6456;42.680;23.260;2022-10-19T14:40:59;4.60;;;3.80;;
12784;SDS011;6456;42.680;23.260;2022-10-19T14:43:27;5.10;;;3.50;;
12784;SDS011;6456;42.680;23.260;2022-10-19T14:46:03;6.20;;;3.97;;
12784;SDS011;6456;42.680;23.260;2022-10-19T14:48:37;5.43;;;3.37;;
12784;SDS011;6456;42.680;23.260;2022-10-19T14:51:06;7.00;;;3.57;;
12784;SDS011;6456;42.680;23.260;2022-10-19T14:53:40;3.90;;;3.60;;
12784;SDS011;6456;42.680;23.260;2022-10-19T14:56:10;4.10;;;3.70;;
12784;SDS011;6456;42.680;23.260;2022-10-19T14:58:43;7.63;;;3.97;;
12784;SDS011;6456;42.680;23.260;2022-10-19T15:01:16;6.10;;;4.50;;
12784;SDS011;6456;42.680;23.260;2022-10-19T15:03:47;7.80;;;4.00;;
12784;SDS011;6456;42.680;23.260;2022-10-19T15:06:16;4.73;;;3.77;;
12784;SDS011;6456;42.680;23.260;2022-10-19T15:08:48;5.23;;;4.00;;
12784;SDS011;6456;42.680;23.260;2022-10-19T15:11:22;5.73;;;4.03;;
12784;SDS011;6456;42.680;23.260;2022-10-19T15:13:56;5.53;;;4.40;;
12784;SDS011;6456;42.680;23.260;2022-10-19T15:16:30;4.30;;;3.90;;
12784;SDS011;6456;42.680;23.260;2022-10-19T15:19:04;5.07;;;4.00;;
12784;SDS011;6456;42.680;23.260;2022-10-19T15:21:39;8.13;;;4.20;;
12784;SDS011;6456;42.680;23.260;2022-10-19T15:24:07;4.47;;;4.07;;
12784;SDS011;6456;42.680;23.260;2022-10-19T15:26:48;5.90;;;4.60;;
12784;SDS011;6456;42.680;23.260;2022-10-19T15:29:20;6.80;;;4.40;;
12784;SDS011;6456;42.680;23.260;2022-10-19T15:31:48;5.20;;;4.40;;
12784;SDS011;6456;42.680;23.260;2022-10-19T15:34:23;5.63;;;4.70;;
12784;SDS011;6456;42.680;23.260;2022-10-19T15:36:53;6.73;;;4.77;;
12784;SDS011;6456;42.680;23.260;2022-10-19T15:39:21;5.13;;;4.37;;